Time;durP1;ratioP1;P1;durP2;ratioP2;P2;SDS_P1;SDS_P2;PMS_P1;PMS_P2;Temp;Humidity;BMP_temperature;BMP_pressure;BME280_temperature;BME280_humidity;BME280_pressure;Samples;Min_cycle;Max_cycle;Signal;HPM_P1;HPM_P2
2022/10/19 00:00:12;;;;;;;;;;;14.00;83.10;;;;;;2044307;29;19917;-87
2022/10/19 00:01:20;;;;;;;;;;;13.90;82.90;;;;;;2050227;28;19911;-90
2022/10/19 00:02:20;;;;;;;;;;;13.90;83.40;;;;;;2051269;29;19907;-88
2022/10/19 00:03:21;;;;;;;;;;;13.90;83.30;;;;;;2048330;29;20342;-90
2022/10/19 00:04:22;;;;;;;;;;;14.00;83.50;;;;;;2044196;29;19939;-87
2022/10/19 00:05:22;;;;;;;;;;;13.90;83.10;;;;;;2059340;28;20001;-91
2022/10/19 00:06:24;;;;;;;;;;;13.90;83.20;;;;;;2052094;28;19958;-88
2022/10/19 00:07:25;;;;;;;;;;;13.90;83.40;;;;;;2060066;28;20004;-88
2022/10/19 00:08:26;;;;;;;;;;;13.90;83.30;;;;;;2052859;28;19985;-89
2022/10/19 00:09:28;;;;;;;;;;;13.90;83.20;;;;;;2038794;29;19917;-89
2022/10/19 00:10:28;;;;;;;;;;;13.90;83.30;;;;;;2041864;29;19911;-85
2022/10/19 00:11:30;;;;;;;;;;;13.90;83.10;;;;;;2043877;29;20231;-89
2022/10/19 00:12:31;;;;;;;;;;;13.90;83.30;;;;;;2051456;28;20034;-89
2022/10/19 00:13:32;;;;;;;;;;;13.90;83.30;;;;;;2052003;28;19969;-90
2022/10/19 00:14:33;;;;;;;;;;;13.90;83.20;;;;;;2060081;28;19929;-85
2022/10/19 00:15:37;;;;;;;;;;;13.90;83.20;;;;;;2057522;28;19989;-87
2022/10/19 00:16:38;;;;;;;;;;;13.90;83.50;;;;;;2059460;28;19921;-88
2022/10/19 00:17:38;;;;;;;;;;;13.90;83.40;;;;;;2049537;28;20353;-88
2022/10/19 00:18:42;;;;;;;;;;;13.90;83.30;;;;;;2043119;29;19981;-88
2022/10/19 00:19:42;;;;;;;;;;;13.90;83.30;;;;;;2052711;28;20329;-88
2022/10/19 00:20:43;;;;;;;;;;;13.90;83.10;;;;;;2042874;29;19910;-88
2022/10/19 00:21:44;;;;;;;;;;;13.90;83.10;;;;;;2050872;29;19910;-87
2022/10/19 00:22:47;;;;;;;;;;;13.90;83.10;;;;;;2064890;28;19910;-89
2022/10/19 00:23:48;;;;;;;;;;;13.90;83.00;;;;;;2048578;28;19915;-87
2022/10/19 00:24:49;;;;;;;;;;;13.90;83.10;;;;;;2051590;29;19947;-85
2022/10/19 00:25:53;;;;;;;;;;;13.90;83.10;;;;;;2053251;28;19911;-90
2022/10/19 00:26:54;;;;;;;;;;;13.90;83.50;;;;;;2042172;29;20001;-91
2022/10/19 00:27:55;;;;;;;;;;;13.90;83.30;;;;;;2044051;29;19981;-90
2022/10/19 00:28:56;;;;;;;;;;;13.90;83.20;;;;;;2048152;29;19922;-88
2022/10/19 00:29:56;;;;;;;;;;;13.90;83.30;;;;;;2036266;29;20005;-91
2022/10/19 00:31:01;;;;;;;;;;;13.90;83.40;;;;;;2046414;29;19965;-86
2022/10/19 00:32:02;;;;;;;;;;;13.90;83.60;;;;;;2051858;28;20017;-88
2022/10/19 00:33:03;;;;;;;;;;;13.90;83.60;;;;;;2039897;29;20434;-87
2022/10/19 00:34:04;;;;;;;;;;;13.90;83.70;;;;;;2043746;28;19906;-91
2022/10/19 00:35:05;;;;;;;;;;;13.90;83.60;;;;;;2051699;28;19978;-86
2022/10/19 00:36:13;;;;;;;;;;;13.90;83.30;;;;;;2051815;28;20005;-89
2022/10/19 00:37:13;;;;;;;;;;;13.90;83.50;;;;;;2052027;29;20268;-89
2022/10/19 00:38:15;;;;;;;;;;;13.90;83.40;;;;;;2042204;29;19921;-87
2022/10/19 00:39:16;;;;;;;;;;;13.90;83.70;;;;;;2040311;28;19915;-88
2022/10/19 00:40:17;;;;;;;;;;;13.80;83.60;;;;;;2051233;28;20009;-89
2022/10/19 00:41:18;;;;;;;;;;;13.90;83.50;;;;;;2040185;29;19910;-86
2022/10/19 00:42:19;;;;;;;;;;;13.90;83.50;;;;;;2042314;29;19907;-89
2022/10/19 00:43:26;;;;;;;;;;;13.90;83.10;;;;;;2050067;29;20237;-86
2022/10/19 00:44:27;;;;;;;;;;;13.80;83.20;;;;;;2051786;28;19910;-90
2022/10/19 00:45:28;;;;;;;;;;;13.90;83.20;;;;;;2043618;29;19961;-86
2022/10/19 00:46:30;;;;;;;;;;;13.80;83.20;;;;;;2047985;29;19989;-91
2022/10/19 00:47:31;;;;;;;;;;;13.90;83.40;;;;;;2052272;28;19911;-87
2022/10/19 00:48:32;;;;;;;;;;;13.90;83.20;;;;;;2044336;29;19907;-88
2022/10/19 00:49:34;;;;;;;;;;;13.90;83.20;;;;;;2035953;29;20409;-90
2022/10/19 00:50:35;;;;;;;;;;;13.90;83.30;;;;;;2044315;28;19958;-87
2022/10/19 00:51:38;;;;;;;;;;;13.90;83.40;;;;;;2047782;29;20018;-84
2022/10/19 00:52:38;;;;;;;;;;;13.90;83.30;;;;;;2052238;28;20264;-90
2022/10/19 00:53:40;;;;;;;;;;;13.90;83.50;;;;;;2059869;28;19921;-87
2022/10/19 00:54:41;;;;;;;;;;;13.80;83.30;;;;;;2059766;28;19906;-89
2022/10/19 00:55:42;;;;;;;;;;;13.90;83.50;;;;;;2044258;28;19950;-90
2022/10/19 00:56:45;;;;;;;;;;;13.90;83.60;;;;;;2059056;28;19932;-90
2022/10/19 00:57:45;;;;;;;;;;;13.90;83.20;;;;;;2051597;28;19918;-90
2022/10/19 00:58:46;;;;;;;;;;;13.80;83.10;;;;;;2050191;29;20413;-88
2022/10/19 00:59:47;;;;;;;;;;;13.80;83.10;;;;;;2059727;28;19910;-89
2022/10/19 01:00:48;;;;;;;;;;;13.80;83.10;;;;;;2059804;28;20005;-87
2022/10/19 01:01:49;;;;;;;;;;;13.80;83.10;;;;;;2053116;28;19907;-87
2022/10/19 01:02:50;;;;;;;;;;;13.80;83.10;;;;;;2051672;29;20330;-89
2022/10/19 01:03:50;;;;;;;;;;;13.80;83.20;;;;;;2051418;29;19973;-88
2022/10/19 01:04:52;;;;;;;;;;;13.80;83.30;;;;;;2043629;29;19918;-87
2022/10/19 01:05:53;;;;;;;;;;;13.80;83.30;;;;;;2051259;28;19933;-87
2022/10/19 01:06:55;;;;;;;;;;;13.90;83.40;;;;;;2043727;29;19915;-87
2022/10/19 01:07:55;;;;;;;;;;;13.80;83.30;;;;;;2052062;28;19910;-89
2022/10/19 01:08:56;;;;;;;;;;;13.80;83.30;;;;;;2049967;29;20008;-89
2022/10/19 01:09:58;;;;;;;;;;;13.80;83.40;;;;;;2051851;28;20390;-87
2022/10/19 01:11:13;;;;;;;;;;;13.80;83.40;;;;;;2059668;28;19906;-86
2022/10/19 01:12:26;;;;;;;;;;;13.80;83.40;;;;;;2049725;28;19953;-86
2022/10/19 01:13:35;;;;;;;;;;;13.80;83.50;;;;;;2051582;29;20262;-90
2022/10/19 01:15:00;;;;;;;;;;;13.80;83.50;;;;;;2030345;29;20330;-88
2022/10/19 01:16:13;;;;;;;;;;;13.80;83.60;;;;;;2048984;29;19911;-88
2022/10/19 01:17:32;;;;;;;;;;;13.80;83.60;;;;;;2059636;28;20260;-86
2022/10/19 01:18:39;;;;;;;;;;;13.80;83.60;;;;;;2056803;28;19944;-89
2022/10/19 01:19:39;;;;;;;;;;;13.80;83.90;;;;;;2051780;29;19910;-89
2022/10/19 01:21:06;;;;;;;;;;;13.80;84.10;;;;;;2047836;29;19906;-91
2022/10/19 01:22:07;;;;;;;;;;;13.80;84.10;;;;;;2051211;28;19917;-89
2022/10/19 01:23:14;;;;;;;;;;;13.90;84.40;;;;;;2043693;29;19911;-88
2022/10/19 01:24:44;;;;;;;;;;;13.90;84.50;;;;;;2052583;28;19993;-90
2022/10/19 01:26:03;;;;;;;;;;;13.90;84.40;;;;;;2039076;29;19911;-90
2022/10/19 01:27:06;;;;;;;;;;;13.90;84.70;;;;;;2046266;28;19928;-88
2022/10/19 01:28:19;;;;;;;;;;;13.80;85.00;;;;;;2058433;28;19917;-89
2022/10/19 01:29:38;;;;;;;;;;;13.90;85.20;;;;;;2052732;28;19921;-88
2022/10/19 01:30:48;;;;;;;;;;;13.90;85.00;;;;;;2055430;28;20407;-90
2022/10/19 01:31:51;;;;;;;;;;;13.90;84.80;;;;;;2044024;29;19919;-91
2022/10/19 01:33:02;;;;;;;;;;;13.80;85.00;;;;;;2052283;28;19915;-86
2022/10/19 01:34:08;;;;;;;;;;;13.90;85.30;;;;;;2059623;28;19941;-90
2022/10/19 01:35:12;;;;;;;;;;;13.90;85.20;;;;;;2051898;28;20234;-87
2022/10/19 01:36:13;;;;;;;;;;;13.90;85.10;;;;;;2049936;28;19916;-86
2022/10/19 01:37:34;;;;;;;;;;;13.80;85.00;;;;;;2051554;28;19921;-86
2022/10/19 01:38:37;;;;;;;;;;;13.90;85.10;;;;;;2037786;29;19911;-89
2022/10/19 01:39:45;;;;;;;;;;;13.90;85.50;;;;;;2049776;28;19914;-89
2022/10/19 01:40:52;;;;;;;;;;;13.80;85.40;;;;;;2067785;28;19929;-89
2022/10/19 01:42:10;;;;;;;;;;;13.90;85.90;;;;;;2059790;28;19906;-89
2022/10/19 01:43:26;;;;;;;;;;;13.90;85.50;;;;;;2051165;28;19910;-89
2022/10/19 01:44:40;;;;;;;;;;;13.80;85.20;;;;;;2045647;29;20338;-86
2022/10/19 01:45:47;;;;;;;;;;;13.90;85.40;;;;;;2054413;28;19906;-86
2022/10/19 01:46:57;;;;;;;;;;;13.90;85.50;;;;;;2067136;28;19913;-88
2022/10/19 01:48:04;;;;;;;;;;;13.90;85.60;;;;;;2052583;28;20005;-87
2022/10/19 01:49:12;;;;;;;;;;;13.90;85.50;;;;;;2043809;28;19914;-89
2022/10/19 01:50:31;;;;;;;;;;;13.90;85.40;;;;;;2051315;28;20036;-90
2022/10/19 01:51:34;;;;;;;;;;;13.90;85.50;;;;;;2045648;29;19914;-88
2022/10/19 01:52:36;;;;;;;;;;;13.90;85.50;;;;;;2056292;28;19906;-86
2022/10/19 01:53:39;;;;;;;;;;;13.80;85.60;;;;;;2060446;28;19910;-91
2022/10/19 01:54:43;;;;;;;;;;;13.80;85.60;;;;;;2052922;28;19946;-87
2022/10/19 01:55:46;;;;;;;;;;;13.80;85.70;;;;;;2043775;29;19910;-91
2022/10/19 01:56:47;;;;;;;;;;;13.80;86.30;;;;;;2042516;28;19911;-90
2022/10/19 01:57:51;;;;;;;;;;;13.80;86.40;;;;;;2051490;28;20249;-90
2022/10/19 01:58:54;;;;;;;;;;;13.80;86.60;;;;;;2042703;29;20330;-88
2022/10/19 01:59:56;;;;;;;;;;;13.80;86.90;;;;;;2046490;28;20376;-89
2022/10/19 02:00:59;;;;;;;;;;;13.80;87.20;;;;;;2050974;28;19957;-90
2022/10/19 02:02:02;;;;;;;;;;;13.80;87.50;;;;;;2051533;28;19918;-90
2022/10/19 02:03:03;;;;;;;;;;;13.70;87.00;;;;;;2058460;28;19910;-94
2022/10/19 02:04:04;;;;;;;;;;;13.70;87.10;;;;;;2043298;29;20330;-94
2022/10/19 02:05:06;;;;;;;;;;;13.70;87.40;;;;;;2050106;29;19914;-93
2022/10/19 02:06:08;;;;;;;;;;;13.70;87.10;;;;;;2043377;29;19922;-91
2022/10/19 02:07:10;;;;;;;;;;;13.80;87.10;;;;;;2043072;29;19978;-89
2022/10/19 02:08:15;;;;;;;;;;;13.80;87.50;;;;;;2050943;28;19918;-93
2022/10/19 02:09:17;;;;;;;;;;;13.70;87.70;;;;;;2043858;29;20377;-90
2022/10/19 02:10:19;;;;;;;;;;;13.70;87.50;;;;;;2049193;28;19906;-87
2022/10/19 02:11:20;;;;;;;;;;;13.70;87.70;;;;;;2051131;29;19954;-91
2022/10/19 02:12:22;;;;;;;;;;;13.70;88.10;;;;;;2034896;29;19919;-92
2022/10/19 02:13:24;;;;;;;;;;;13.70;88.10;;;;;;2050851;28;19945;-88
2022/10/19 02:14:28;;;;;;;;;;;13.70;87.90;;;;;;2038103;29;19906;-87
2022/10/19 02:15:30;;;;;;;;;;;13.80;88.20;;;;;;2047884;28;19921;-91
2022/10/19 02:16:38;;;;;;;;;;;13.70;88.70;;;;;;2043420;29;20346;-89
2022/10/19 02:17:43;;;;;;;;;;;13.70;88.90;;;;;;2053309;28;20018;-89
2022/10/19 02:18:49;;;;;;;;;;;13.70;88.90;;;;;;2054553;28;20008;-91
2022/10/19 02:19:51;;;;;;;;;;;13.70;89.00;;;;;;2043778;29;19907;-91
2022/10/19 02:20:52;;;;;;;;;;;13.70;89.20;;;;;;2049815;29;20345;-89
2022/10/19 02:21:52;;;;;;;;;;;13.70;89.40;;;;;;2051083;29;20005;-91
2022/10/19 02:22:53;;;;;;;;;;;13.70;89.40;;;;;;2052084;28;19910;-90
2022/10/19 02:23:54;;;;;;;;;;;13.70;89.10;;;;;;2046741;28;19906;-88
2022/10/19 02:24:55;;;;;;;;;;;13.70;89.40;;;;;;2043109;29;19911;-91
2022/10/19 02:25:56;;;;;;;;;;;13.70;89.20;;;;;;2042704;29;19919;-91
2022/10/19 02:27:03;;;;;;;;;;;13.70;89.30;;;;;;2043564;29;20334;-92
2022/10/19 02:28:04;;;;;;;;;;;13.70;89.50;;;;;;2043795;29;19921;-88
2022/10/19 02:29:05;;;;;;;;;;;13.60;90.00;;;;;;2047565;29;19906;-90
2022/10/19 02:30:10;;;;;;;;;;;13.60;90.00;;;;;;2035290;29;19954;-90
2022/10/19 02:31:10;;;;;;;;;;;13.60;89.70;;;;;;2038889;28;19922;-91
2022/10/19 02:32:12;;;;;;;;;;;13.60;90.00;;;;;;2042334;29;20388;-87
2022/10/19 02:33:13;;;;;;;;;;;13.60;90.00;;;;;;2051156;28;20262;-91
2022/10/19 02:34:14;;;;;;;;;;;13.60;89.90;;;;;;2047795;29;19997;-90
2022/10/19 02:35:15;;;;;;;;;;;13.60;90.00;;;;;;2043025;29;19969;-91
2022/10/19 02:36:16;;;;;;;;;;;13.60;89.70;;;;;;2039166;29;19907;-92
2022/10/19 02:37:17;;;;;;;;;;;13.60;89.60;;;;;;2058942;28;19909;-90
2022/10/19 02:38:19;;;;;;;;;;;13.60;89.50;;;;;;2050215;28;19906;-89
2022/10/19 02:39:20;;;;;;;;;;;13.60;89.50;;;;;;2044855;29;19914;-92
2022/10/19 02:40:21;;;;;;;;;;;13.60;90.00;;;;;;2042872;29;19955;-87
2022/10/19 02:41:26;;;;;;;;;;;13.60;89.90;;;;;;2043176;29;19957;-92
2022/10/19 02:42:38;;;;;;;;;;;13.60;90.10;;;;;;2043520;29;19911;-89
2022/10/19 02:43:40;;;;;;;;;;;13.60;90.00;;;;;;2045863;28;19914;-91
2022/10/19 02:44:47;;;;;;;;;;;13.60;89.80;;;;;;2050799;28;19967;-92
2022/10/19 02:45:55;;;;;;;;;;;13.60;89.60;;;;;;2042974;29;19942;-89
2022/10/19 02:47:01;;;;;;;;;;;13.60;90.00;;;;;;2036808;29;19911;-88
2022/10/19 02:48:05;;;;;;;;;;;13.60;90.00;;;;;;2036207;29;20374;-89
2022/10/19 02:49:06;;;;;;;;;;;13.60;90.00;;;;;;2059266;28;19960;-89
2022/10/19 02:50:08;;;;;;;;;;;13.60;90.00;;;;;;2060820;28;19921;-91
2022/10/19 02:51:27;;;;;;;;;;;13.60;90.00;;;;;;2066672;28;19910;-90
2022/10/19 02:52:27;;;;;;;;;;;13.60;89.90;;;;;;2047859;29;19986;-90
2022/10/19 02:53:28;;;;;;;;;;;13.60;90.00;;;;;;2050526;28;19910;-90
2022/10/19 02:54:29;;;;;;;;;;;13.60;90.00;;;;;;2050780;29;19906;-91
2022/10/19 02:55:30;;;;;;;;;;;13.60;90.10;;;;;;2058628;28;19906;-91
2022/10/19 02:56:31;;;;;;;;;;;13.60;90.00;;;;;;2058047;28;19910;-90
2022/10/19 02:57:31;;;;;;;;;;;13.50;90.00;;;;;;2058689;28;20356;-88
2022/10/19 02:58:32;;;;;;;;;;;13.50;90.00;;;;;;2050220;29;19914;-90
2022/10/19 02:59:33;;;;;;;;;;;13.50;90.00;;;;;;2042074;29;19907;-88
2022/10/19 03:00:34;;;;;;;;;;;13.50;90.00;;;;;;2042868;29;20239;-92
2022/10/19 03:01:34;;;;;;;;;;;13.50;90.00;;;;;;2045356;29;20009;-91
2022/10/19 03:02:35;;;;;;;;;;;13.50;90.00;;;;;;2050733;29;19910;-90
2022/10/19 03:03:36;;;;;;;;;;;13.50;90.00;;;;;;2035048;29;19907;-92
2022/10/19 03:04:37;;;;;;;;;;;13.50;90.10;;;;;;2042812;28;19910;-90
2022/10/19 03:05:37;;;;;;;;;;;13.50;90.10;;;;;;2049713;29;19918;-89
2022/10/19 03:06:38;;;;;;;;;;;13.50;90.00;;;;;;2036936;29;19911;-91
2022/10/19 03:07:40;;;;;;;;;;;13.50;89.90;;;;;;2050732;29;19938;-87
2022/10/19 03:08:40;;;;;;;;;;;13.50;90.10;;;;;;2045820;28;19907;-88
2022/10/19 03:09:42;;;;;;;;;;;13.50;90.10;;;;;;2050212;29;19938;-88
2022/10/19 03:10:42;;;;;;;;;;;13.50;90.00;;;;;;2050772;28;20265;-89
2022/10/19 03:11:43;;;;;;;;;;;13.50;90.20;;;;;;2041784;29;19910;-92
2022/10/19 03:12:44;;;;;;;;;;;13.50;90.20;;;;;;2042771;29;20057;-90
2022/10/19 03:13:44;;;;;;;;;;;13.50;90.10;;;;;;2055416;28;20225;-90
2022/10/19 03:14:45;;;;;;;;;;;13.50;90.20;;;;;;2058158;28;19962;-89
2022/10/19 03:15:46;;;;;;;;;;;13.50;90.20;;;;;;2042597;29;20061;-89
2022/10/19 03:16:47;;;;;;;;;;;13.50;90.30;;;;;;2050835;28;19910;-89
2022/10/19 03:17:51;;;;;;;;;;;13.50;90.10;;;;;;2058743;28;19906;-89
2022/10/19 03:18:51;;;;;;;;;;;13.50;90.00;;;;;;2053022;28;19910;-90
2022/10/19 03:19:52;;;;;;;;;;;13.50;90.10;;;;;;2059280;28;19910;-90
2022/10/19 03:21:00;;;;;;;;;;;13.50;90.10;;;;;;2051006;28;19961;-88
2022/10/19 03:22:01;;;;;;;;;;;13.50;90.30;;;;;;2043694;29;20337;-87
2022/10/19 03:23:02;;;;;;;;;;;13.50;90.20;;;;;;2050685;28;19917;-88
2022/10/19 03:24:03;;;;;;;;;;;13.50;90.10;;;;;;2046624;29;19910;-90
2022/10/19 03:25:04;;;;;;;;;;;13.50;90.20;;;;;;2041954;28;19915;-88
2022/10/19 03:26:05;;;;;;;;;;;13.50;90.30;;;;;;2054581;28;20053;-88
2022/10/19 03:27:06;;;;;;;;;;;13.50;90.40;;;;;;2045151;29;19920;-91
2022/10/19 03:28:07;;;;;;;;;;;13.40;90.50;;;;;;2042884;29;19907;-89
2022/10/19 03:29:07;;;;;;;;;;;13.40;90.50;;;;;;2044502;29;19907;-89
2022/10/19 03:30:08;;;;;;;;;;;13.40;90.40;;;;;;2050678;28;19910;-90
2022/10/19 03:31:09;;;;;;;;;;;13.40;90.50;;;;;;2055616;28;19917;-89
2022/10/19 03:32:10;;;;;;;;;;;13.40;90.50;;;;;;2042047;29;19935;-88
2022/10/19 03:33:10;;;;;;;;;;;13.40;90.60;;;;;;2051269;28;20269;-89
2022/10/19 03:34:11;;;;;;;;;;;13.40;90.40;;;;;;2050173;29;19910;-90
2022/10/19 03:35:12;;;;;;;;;;;13.40;90.40;;;;;;2053922;28;19910;-91
2022/10/19 03:36:15;;;;;;;;;;;13.40;90.50;;;;;;2058378;28;19969;-92
2022/10/19 03:37:16;;;;;;;;;;;13.40;90.40;;;;;;2049260;28;20329;-87
2022/10/19 03:38:17;;;;;;;;;;;13.40;90.50;;;;;;2041460;29;19906;-89
2022/10/19 03:39:17;;;;;;;;;;;13.40;90.40;;;;;;2042604;29;19946;-90
2022/10/19 03:40:18;;;;;;;;;;;13.40;90.60;;;;;;2050545;28;19906;-90
2022/10/19 03:41:20;;;;;;;;;;;13.40;90.50;;;;;;2050373;29;19921;-87
2022/10/19 03:42:20;;;;;;;;;;;13.40;90.60;;;;;;2047400;28;19949;-90
2022/10/19 03:43:21;;;;;;;;;;;13.40;90.50;;;;;;2050195;29;19997;-89
2022/10/19 03:44:22;;;;;;;;;;;13.40;90.30;;;;;;2042284;29;19942;-90
2022/10/19 03:45:23;;;;;;;;;;;13.40;90.50;;;;;;2036560;29;19915;-89
2022/10/19 03:46:23;;;;;;;;;;;13.40;90.50;;;;;;2042880;28;19910;-88
2022/10/19 03:47:24;;;;;;;;;;;13.40;90.30;;;;;;2045193;29;19914;-88
2022/10/19 03:48:25;;;;;;;;;;;13.40;90.40;;;;;;2051072;28;19910;-89
2022/10/19 03:49:25;;;;;;;;;;;13.40;90.50;;;;;;2050559;29;19945;-87
2022/10/19 03:50:26;;;;;;;;;;;13.40;90.50;;;;;;2042583;29;19914;-86
2022/10/19 03:51:28;;;;;;;;;;;13.30;90.50;;;;;;2050474;28;19946;-88
2022/10/19 03:52:28;;;;;;;;;;;13.40;90.60;;;;;;2045709;29;19915;-90
2022/10/19 03:53:30;;;;;;;;;;;13.40;90.60;;;;;;2034737;29;19911;-90
2022/10/19 03:54:31;;;;;;;;;;;13.30;90.50;;;;;;2050286;28;20345;-88
2022/10/19 03:55:31;;;;;;;;;;;13.30;90.50;;;;;;2044952;29;19921;-90
2022/10/19 03:56:33;;;;;;;;;;;13.30;90.50;;;;;;2034754;29;19907;-88
2022/10/19 03:57:33;;;;;;;;;;;13.30;90.50;;;;;;2029955;29;20318;-87
2022/10/19 03:58:35;;;;;;;;;;;13.30;90.50;;;;;;2034021;29;19968;-87
2022/10/19 03:59:36;;;;;;;;;;;13.30;90.60;;;;;;2042754;28;19934;-87
2022/10/19 04:00:38;;;;;;;;;;;13.30;90.60;;;;;;2050556;28;19917;-89
2022/10/19 04:01:40;;;;;;;;;;;13.30;90.50;;;;;;2050621;28;19914;-89
2022/10/19 04:02:41;;;;;;;;;;;13.30;90.60;;;;;;2050712;28;19906;-88
2022/10/19 04:03:42;;;;;;;;;;;13.30;90.50;;;;;;2050604;29;19946;-89
2022/10/19 04:04:42;;;;;;;;;;;13.40;90.50;;;;;;2050645;28;19949;-89
2022/10/19 04:05:43;;;;;;;;;;;13.40;90.60;;;;;;2057476;28;19921;-89
2022/10/19 04:06:45;;;;;;;;;;;13.30;90.80;;;;;;2066439;28;19910;-90
2022/10/19 04:07:46;;;;;;;;;;;13.30;90.80;;;;;;2066226;28;19933;-90
2022/10/19 04:08:47;;;;;;;;;;;13.30;90.70;;;;;;2050627;28;19910;-91
2022/10/19 04:09:48;;;;;;;;;;;13.30;90.70;;;;;;2050269;28;19906;-88
2022/10/19 04:10:48;;;;;;;;;;;13.30;90.80;;;;;;2050455;28;19918;-89
2022/10/19 04:11:49;;;;;;;;;;;13.30;90.80;;;;;;2053681;28;19945;-90
2022/10/19 04:12:50;;;;;;;;;;;13.20;90.70;;;;;;2042547;29;20066;-88
2022/10/19 04:13:51;;;;;;;;;;;13.20;90.70;;;;;;2042502;29;20368;-89
2022/10/19 04:14:52;;;;;;;;;;;13.20;90.60;;;;;;2066114;28;19920;-89
2022/10/19 04:15:52;;;;;;;;;;;13.20;90.80;;;;;;2058435;28;19907;-87
2022/10/19 04:16:53;;;;;;;;;;;13.20;90.70;;;;;;2042371;29;19912;-89
2022/10/19 04:17:54;;;;;;;;;;;13.20;90.60;;;;;;2038541;29;19917;-88
2022/10/19 04:18:55;;;;;;;;;;;13.20;90.80;;;;;;2045071;29;19919;-89
2022/10/19 04:19:55;;;;;;;;;;;13.20;90.80;;;;;;2043321;29;19946;-90
2022/10/19 04:20:57;;;;;;;;;;;13.10;90.70;;;;;;2043734;29;20361;-86
2022/10/19 04:21:58;;;;;;;;;;;13.20;90.80;;;;;;2042610;29;19911;-90
2022/10/19 04:22:58;;;;;;;;;;;13.20;90.80;;;;;;2046490;29;20373;-88
2022/10/19 04:24:00;;;;;;;;;;;13.20;90.80;;;;;;2042725;29;19954;-89
2022/10/19 04:25:01;;;;;;;;;;;13.20;91.00;;;;;;2047676;28;20375;-90
2022/10/19 04:26:03;;;;;;;;;;;13.20;91.00;;;;;;2038876;28;19918;-88
2022/10/19 04:27:04;;;;;;;;;;;13.20;90.80;;;;;;2055478;28;19910;-87
2022/10/19 04:28:05;;;;;;;;;;;13.20;90.80;;;;;;2049769;28;20257;-88
2022/10/19 04:29:05;;;;;;;;;;;13.20;90.80;;;;;;2042466;29;19907;-92
2022/10/19 04:30:06;;;;;;;;;;;13.20;90.70;;;;;;2058441;28;20008;-89
2022/10/19 04:31:07;;;;;;;;;;;13.20;90.70;;;;;;2051317;28;19929;-87
2022/10/19 04:32:08;;;;;;;;;;;13.20;90.60;;;;;;2043193;29;19954;-89
2022/10/19 04:33:08;;;;;;;;;;;13.20;90.60;;;;;;2031493;29;19911;-89
2022/10/19 04:34:09;;;;;;;;;;;13.20;90.50;;;;;;2051673;29;19917;-89
2022/10/19 04:35:10;;;;;;;;;;;13.20;90.90;;;;;;2059857;28;19906;-89
2022/10/19 04:36:11;;;;;;;;;;;13.20;90.70;;;;;;2051800;29;20273;-89
2022/10/19 04:37:12;;;;;;;;;;;13.20;90.80;;;;;;2051185;29;19993;-90
2022/10/19 04:38:12;;;;;;;;;;;13.20;90.70;;;;;;2051731;29;19910;-89
2022/10/19 04:39:13;;;;;;;;;;;13.20;90.70;;;;;;2053208;28;20018;-90
2022/10/19 04:40:14;;;;;;;;;;;13.20;90.80;;;;;;2056451;28;20357;-90
2022/10/19 04:41:16;;;;;;;;;;;13.20;90.80;;;;;;2051900;29;19953;-89
2022/10/19 04:42:16;;;;;;;;;;;13.20;90.70;;;;;;2051595;28;20272;-89
2022/10/19 04:43:17;;;;;;;;;;;13.20;90.80;;;;;;2052297;28;19910;-88
2022/10/19 04:44:18;;;;;;;;;;;13.20;90.70;;;;;;2051815;29;19910;-88
2022/10/19 04:45:19;;;;;;;;;;;13.20;90.80;;;;;;2043305;29;19907;-88
2022/10/19 04:46:20;;;;;;;;;;;13.20;90.80;;;;;;2043782;29;20269;-88
2022/10/19 04:47:21;;;;;;;;;;;13.20;90.80;;;;;;2051539;28;20318;-89
2022/10/19 04:48:21;;;;;;;;;;;13.10;90.80;;;;;;2061732;28;19910;-88
2022/10/19 04:49:22;;;;;;;;;;;13.10;90.80;;;;;;2062183;28;19906;-89
2022/10/19 04:50:23;;;;;;;;;;;13.10;91.10;;;;;;2052032;29;20079;-90
2022/10/19 04:51:29;;;;;;;;;;;13.10;90.90;;;;;;2044311;29;20254;-89
2022/10/19 04:52:30;;;;;;;;;;;13.10;90.80;;;;;;2051186;29;19945;-89
2022/10/19 04:53:31;;;;;;;;;;;13.10;90.80;;;;;;2056593;28;20261;-91
2022/10/19 04:54:32;;;;;;;;;;;13.20;90.80;;;;;;2044230;29;20325;-90
2022/10/19 04:55:33;;;;;;;;;;;13.20;90.80;;;;;;2043112;29;19934;-89
2022/10/19 04:56:33;;;;;;;;;;;13.20;90.80;;;;;;2058212;28;20408;-89
2022/10/19 04:57:34;;;;;;;;;;;13.10;90.80;;;;;;2052951;28;20019;-90
2022/10/19 04:58:35;;;;;;;;;;;13.20;90.90;;;;;;2053160;28;20400;-89
2022/10/19 04:59:35;;;;;;;;;;;13.20;90.90;;;;;;2050719;29;19977;-90
2022/10/19 05:00:37;;;;;;;;;;;13.20;90.90;;;;;;2048252;28;19949;-89
2022/10/19 05:01:37;;;;;;;;;;;13.20;91.00;;;;;;2059847;28;19906;-90
2022/10/19 05:02:41;;;;;;;;;;;13.20;91.00;;;;;;2051761;29;20457;-90
2022/10/19 05:03:42;;;;;;;;;;;13.20;91.00;;;;;;2046282;29;19911;-88
2022/10/19 05:04:43;;;;;;;;;;;13.20;91.00;;;;;;2043921;29;19929;-88
2022/10/19 05:05:43;;;;;;;;;;;13.20;91.00;;;;;;2047649;29;20006;-91
2022/10/19 05:06:44;;;;;;;;;;;13.20;91.10;;;;;;2059758;28;19910;-88
2022/10/19 05:07:47;;;;;;;;;;;13.20;91.10;;;;;;2051457;28;19917;-90
2022/10/19 05:08:49;;;;;;;;;;;13.20;91.10;;;;;;2046604;28;20276;-90
2022/10/19 05:09:49;;;;;;;;;;;13.20;91.30;;;;;;2043724;29;19913;-89
2022/10/19 05:10:50;;;;;;;;;;;13.20;91.00;;;;;;2043831;29;19914;-90
2022/10/19 05:11:51;;;;;;;;;;;13.20;90.90;;;;;;2046980;29;19910;-91
2022/10/19 05:12:51;;;;;;;;;;;13.20;90.90;;;;;;2052208;28;19917;-90
2022/10/19 05:13:52;;;;;;;;;;;13.20;91.00;;;;;;2059572;28;20024;-92
2022/10/19 05:14:53;;;;;;;;;;;13.20;91.00;;;;;;2059332;28;19953;-88
2022/10/19 05:15:55;;;;;;;;;;;13.20;91.00;;;;;;2051212;29;19933;-90
2022/10/19 05:16:55;;;;;;;;;;;13.20;91.20;;;;;;2051428;29;19978;-90
2022/10/19 05:17:56;;;;;;;;;;;13.20;91.30;;;;;;2035792;29;20020;-90
2022/10/19 05:18:58;;;;;;;;;;;13.20;91.30;;;;;;2036656;29;20389;-88
2022/10/19 05:19:59;;;;;;;;;;;13.20;91.10;;;;;;2051814;28;19918;-91
2022/10/19 05:21:09;;;;;;;;;;;13.20;91.10;;;;;;2055958;28;19945;-89
2022/10/19 05:22:10;;;;;;;;;;;13.20;91.10;;;;;;2043436;29;20433;-92
2022/10/19 05:23:11;;;;;;;;;;;13.20;91.10;;;;;;2043684;29;19911;-89
2022/10/19 05:24:12;;;;;;;;;;;13.20;91.00;;;;;;2056580;28;20353;-91
2022/10/19 05:25:13;;;;;;;;;;;13.20;91.00;;;;;;2042874;29;19965;-87
2022/10/19 05:26:17;;;;;;;;;;;13.20;91.10;;;;;;2042834;29;19911;-89
2022/10/19 05:27:17;;;;;;;;;;;13.20;91.10;;;;;;2044539;28;19958;-90
2022/10/19 05:28:18;;;;;;;;;;;13.20;91.00;;;;;;2051688;28;20040;-89
2022/10/19 05:29:19;;;;;;;;;;;13.20;91.10;;;;;;2059142;28;19906;-88
2022/10/19 05:30:20;;;;;;;;;;;13.20;91.10;;;;;;2059485;28;20332;-87
2022/10/19 05:31:22;;;;;;;;;;;13.20;91.10;;;;;;2043595;29;19907;-90
2022/10/19 05:32:23;;;;;;;;;;;13.20;91.20;;;;;;2035320;29;19930;-90
2022/10/19 05:33:23;;;;;;;;;;;13.20;91.10;;;;;;2035583;29;19915;-89
2022/10/19 05:34:24;;;;;;;;;;;13.20;91.10;;;;;;2043811;29;20006;-88
2022/10/19 05:35:25;;;;;;;;;;;13.20;91.10;;;;;;2043873;29;20014;-88
2022/10/19 05:36:31;;;;;;;;;;;13.20;91.10;;;;;;2055858;28;19910;-90
2022/10/19 05:37:31;;;;;;;;;;;13.20;91.00;;;;;;2059580;28;19906;-91
2022/10/19 05:38:32;;;;;;;;;;;13.20;91.00;;;;;;2042704;29;19949;-89
2022/10/19 05:39:33;;;;;;;;;;;13.20;91.10;;;;;;2051718;28;20873;-90
2022/10/19 05:40:34;;;;;;;;;;;13.20;91.10;;;;;;2067364;28;19920;-88
2022/10/19 05:41:34;;;;;;;;;;;13.20;91.10;;;;;;2060499;28;20325;-91
2022/10/19 05:42:35;;;;;;;;;;;13.20;91.10;;;;;;2043545;29;20358;-90
2022/10/19 05:43:36;;;;;;;;;;;13.20;91.00;;;;;;2064070;28;19909;-88
2022/10/19 05:44:36;;;;;;;;;;;13.10;91.00;;;;;;2045131;28;19917;-88
2022/10/19 05:45:37;;;;;;;;;;;13.20;91.00;;;;;;2049775;28;19940;-88
2022/10/19 05:46:38;;;;;;;;;;;13.10;91.00;;;;;;2059549;28;19906;-90
2022/10/19 05:47:38;;;;;;;;;;;13.20;91.20;;;;;;2059398;28;19981;-91
2022/10/19 05:48:40;;;;;;;;;;;13.10;91.00;;;;;;2055102;28;19910;-88
2022/10/19 05:49:40;;;;;;;;;;;13.10;91.10;;;;;;2043238;29;19988;-89
2022/10/19 05:50:50;;;;;;;;;;;13.10;90.90;;;;;;2043238;29;19980;-88
2022/10/19 05:51:52;;;;;;;;;;;13.10;90.90;;;;;;2050660;28;19918;-89
2022/10/19 05:52:53;;;;;;;;;;;13.10;91.30;;;;;;2051373;28;19906;-88
2022/10/19 05:53:54;;;;;;;;;;;13.10;91.10;;;;;;2064545;28;19910;-90
2022/10/19 05:54:57;;;;;;;;;;;13.10;91.20;;;;;;2066855;28;19944;-90
2022/10/19 05:55:57;;;;;;;;;;;13.10;91.00;;;;;;2051684;28;20009;-88
2022/10/19 05:56:58;;;;;;;;;;;13.10;91.00;;;;;;2048421;29;19910;-90
2022/10/19 05:57:59;;;;;;;;;;;13.10;91.10;;;;;;2051444;29;19910;-91
2022/10/19 05:59:01;;;;;;;;;;;13.10;91.00;;;;;;2055635;28;19918;-91
2022/10/19 06:00:03;;;;;;;;;;;13.10;91.10;;;;;;2059164;28;19996;-90
2022/10/19 06:01:13;;;;;;;;;;;13.10;91.10;;;;;;2052764;28;19993;-87
2022/10/19 06:02:13;;;;;;;;;;;13.10;91.10;;;;;;2054774;28;19910;-90
2022/10/19 06:03:16;;;;;;;;;;;13.10;91.00;;;;;;2043226;29;19911;-89